Terminal Aerodrome Forecast
Issued by NWS Portland, OR

Home | Current Version | Previous Version | Text Only | Print | Product List | Glossary On
Versions: 1 2 3 4 5 6 7 8 9 10 11 12 13 14 15 16 17 18 19 20 21 22 23 24 25 26 27 28 29 30 31 32
610
FTUS46 KPQR 040534
TAFSLE
TAF
KSLE 040534Z 0406/0506 27004KT P6SM VCSH SCT045 BKN060 BKN120
     FM041000 32005KT P6SM OVC030
     FM041200 33006KT P6SM OVC020
     FM042000 34011KT P6SM -SHRA SCT025 BKN040
     FM050100 31009KT P6SM -SHRA SCT030 BKN045=

USA.gov is the U.S. government's official web portal to all federal, state and local government web resources and services.